sensor_id;sensor_type;location;lat;lon;timestamp;P1;durP1;ratioP1;P2;durP2;ratioP2
23555;SDS011;11956;53.184;8.578;2023-04-16T00:02:33;37.88;;;27.35;;
23555;SDS011;11956;53.184;8.578;2023-04-16T00:05:34;42.33;;;27.95;;
23555;SDS011;11956;53.184;8.578;2023-04-16T00:08:35;40.20;;;28.65;;
23555;SDS011;11956;53.184;8.578;2023-04-16T00:11:36;36.50;;;27.17;;
23555;SDS011;11956;53.184;8.578;2023-04-16T00:14:38;39.95;;;27.15;;
23555;SDS011;11956;53.184;8.578;2023-04-16T00:17:39;39.00;;;26.67;;
23555;SDS011;11956;53.184;8.578;2023-04-16T00:20:40;38.85;;;26.77;;
23555;SDS011;11956;53.184;8.578;2023-04-16T00:23:41;37.10;;;27.70;;
23555;SDS011;11956;53.184;8.578;2023-04-16T00:26:42;39.47;;;27.00;;
23555;SDS011;11956;53.184;8.578;2023-04-16T00:29:44;38.70;;;27.83;;
23555;SDS011;11956;53.184;8.578;2023-04-16T00:32:45;36.42;;;26.25;;
23555;SDS011;11956;53.184;8.578;2023-04-16T00:35:46;36.85;;;27.00;;
23555;SDS011;11956;53.184;8.578;2023-04-16T00:38:48;36.85;;;26.17;;
23555;SDS011;11956;53.184;8.578;2023-04-16T00:41:48;38.22;;;24.85;;
23555;SDS011;11956;53.184;8.578;2023-04-16T00:44:50;40.15;;;27.63;;
23555;SDS011;11956;53.184;8.578;2023-04-16T00:47:50;35.03;;;25.83;;
23555;SDS011;11956;53.184;8.578;2023-04-16T00:50:51;39.50;;;27.55;;
23555;SDS011;11956;53.184;8.578;2023-04-16T00:53:54;34.70;;;26.00;;
23555;SDS011;11956;53.184;8.578;2023-04-16T00:56:57;38.42;;;27.30;;
23555;SDS011;11956;53.184;8.578;2023-04-16T00:59:58;39.22;;;26.90;;
23555;SDS011;11956;53.184;8.578;2023-04-16T01:02:59;38.33;;;26.83;;
23555;SDS011;11956;53.184;8.578;2023-04-16T01:06:00;40.25;;;26.23;;
23555;SDS011;11956;53.184;8.578;2023-04-16T01:09:02;35.63;;;27.00;;
23555;SDS011;11956;53.184;8.578;2023-04-16T01:12:03;37.85;;;25.92;;
23555;SDS011;11956;53.184;8.578;2023-04-16T01:15:04;35.72;;;25.63;;
23555;SDS011;11956;53.184;8.578;2023-04-16T01:18:15;34.85;;;25.30;;
23555;SDS011;11956;53.184;8.578;2023-04-16T01:21:19;35.22;;;24.60;;
23555;SDS011;11956;53.184;8.578;2023-04-16T01:24:20;32.83;;;24.52;;
23555;SDS011;11956;53.184;8.578;2023-04-16T01:27:20;36.95;;;26.38;;
23555;SDS011;11956;53.184;8.578;2023-04-16T01:30:21;38.75;;;25.17;;
23555;SDS011;11956;53.184;8.578;2023-04-16T01:33:34;33.28;;;24.10;;
23555;SDS011;11956;53.184;8.578;2023-04-16T01:36:35;36.60;;;25.60;;
23555;SDS011;11956;53.184;8.578;2023-04-16T01:39:36;32.92;;;25.35;;
23555;SDS011;11956;53.184;8.578;2023-04-16T01:42:37;33.50;;;23.58;;
23555;SDS011;11956;53.184;8.578;2023-04-16T01:45:38;33.15;;;25.05;;
23555;SDS011;11956;53.184;8.578;2023-04-16T01:48:39;37.65;;;25.83;;
23555;SDS011;11956;53.184;8.578;2023-04-16T01:51:40;34.42;;;24.55;;
23555;SDS011;11956;53.184;8.578;2023-04-16T01:54:41;33.75;;;24.98;;
23555;SDS011;11956;53.184;8.578;2023-04-16T01:57:42;30.55;;;23.23;;
23555;SDS011;11956;53.184;8.578;2023-04-16T02:00:44;38.40;;;26.75;;
23555;SDS011;11956;53.184;8.578;2023-04-16T02:03:45;37.83;;;25.77;;
23555;SDS011;11956;53.184;8.578;2023-04-16T02:06:48;35.00;;;26.55;;
23555;SDS011;11956;53.184;8.578;2023-04-16T02:09:49;35.78;;;26.08;;
23555;SDS011;11956;53.184;8.578;2023-04-16T02:12:50;37.28;;;26.10;;
23555;SDS011;11956;53.184;8.578;2023-04-16T02:15:52;36.47;;;24.35;;
23555;SDS011;11956;53.184;8.578;2023-04-16T02:19:11;40.22;;;26.92;;
23555;SDS011;11956;53.184;8.578;2023-04-16T02:22:14;41.58;;;26.77;;
23555;SDS011;11956;53.184;8.578;2023-04-16T02:25:15;36.45;;;25.40;;
23555;SDS011;11956;53.184;8.578;2023-04-16T02:28:16;35.55;;;26.05;;
23555;SDS011;11956;53.184;8.578;2023-04-16T02:31:19;40.33;;;27.40;;
23555;SDS011;11956;53.184;8.578;2023-04-16T02:34:21;36.67;;;25.55;;
23555;SDS011;11956;53.184;8.578;2023-04-16T02:37:22;37.63;;;25.83;;
23555;SDS011;11956;53.184;8.578;2023-04-16T02:40:25;38.13;;;26.80;;
23555;SDS011;11956;53.184;8.578;2023-04-16T02:43:27;42.17;;;27.85;;
23555;SDS011;11956;53.184;8.578;2023-04-16T02:46:28;38.42;;;26.90;;
23555;SDS011;11956;53.184;8.578;2023-04-16T02:49:29;38.25;;;28.20;;
23555;SDS011;11956;53.184;8.578;2023-04-16T02:52:30;34.85;;;25.73;;
23555;SDS011;11956;53.184;8.578;2023-04-16T02:55:32;33.55;;;26.40;;
23555;SDS011;11956;53.184;8.578;2023-04-16T02:58:32;38.70;;;26.92;;
23555;SDS011;11956;53.184;8.578;2023-04-16T03:01:33;39.17;;;27.45;;
23555;SDS011;11956;53.184;8.578;2023-04-16T03:04:34;37.10;;;25.70;;
23555;SDS011;11956;53.184;8.578;2023-04-16T03:07:35;35.20;;;26.48;;
23555;SDS011;11956;53.184;8.578;2023-04-16T03:10:38;41.90;;;27.90;;
23555;SDS011;11956;53.184;8.578;2023-04-16T03:13:40;40.05;;;27.23;;
23555;SDS011;11956;53.184;8.578;2023-04-16T03:16:41;38.50;;;26.65;;
23555;SDS011;11956;53.184;8.578;2023-04-16T03:19:42;37.80;;;26.35;;
23555;SDS011;11956;53.184;8.578;2023-04-16T03:22:42;42.20;;;28.98;;
23555;SDS011;11956;53.184;8.578;2023-04-16T03:25:46;36.60;;;26.50;;
23555;SDS011;11956;53.184;8.578;2023-04-16T03:28:50;41.30;;;28.15;;
23555;SDS011;11956;53.184;8.578;2023-04-16T03:31:52;36.45;;;27.02;;
23555;SDS011;11956;53.184;8.578;2023-04-16T03:34:53;37.50;;;26.75;;
23555;SDS011;11956;53.184;8.578;2023-04-16T03:37:55;42.78;;;27.23;;
23555;SDS011;11956;53.184;8.578;2023-04-16T03:40:56;41.17;;;28.45;;
23555;SDS011;11956;53.184;8.578;2023-04-16T03:43:57;38.97;;;27.67;;
23555;SDS011;11956;53.184;8.578;2023-04-16T03:46:58;38.40;;;27.48;;
23555;SDS011;11956;53.184;8.578;2023-04-16T03:49:59;37.53;;;27.38;;
23555;SDS011;11956;53.184;8.578;2023-04-16T03:53:01;38.10;;;27.88;;
23555;SDS011;11956;53.184;8.578;2023-04-16T03:56:03;38.58;;;26.90;;
23555;SDS011;11956;53.184;8.578;2023-04-16T03:59:04;40.47;;;28.10;;
23555;SDS011;11956;53.184;8.578;2023-04-16T04:02:06;40.15;;;27.05;;
23555;SDS011;11956;53.184;8.578;2023-04-16T04:05:07;36.40;;;26.92;;
23555;SDS011;11956;53.184;8.578;2023-04-16T04:08:09;40.33;;;27.73;;
23555;SDS011;11956;53.184;8.578;2023-04-16T04:11:11;37.05;;;26.65;;
23555;SDS011;11956;53.184;8.578;2023-04-16T04:14:14;40.92;;;27.50;;
23555;SDS011;11956;53.184;8.578;2023-04-16T04:17:15;34.22;;;25.52;;
23555;SDS011;11956;53.184;8.578;2023-04-16T04:20:16;37.83;;;26.70;;
23555;SDS011;11956;53.184;8.578;2023-04-16T04:23:19;38.67;;;26.92;;
23555;SDS011;11956;53.184;8.578;2023-04-16T04:26:21;33.92;;;25.15;;
23555;SDS011;11956;53.184;8.578;2023-04-16T04:29:22;40.35;;;26.40;;
23555;SDS011;11956;53.184;8.578;2023-04-16T04:32:23;40.25;;;26.75;;
23555;SDS011;11956;53.184;8.578;2023-04-16T04:35:24;40.85;;;27.50;;
23555;SDS011;11956;53.184;8.578;2023-04-16T04:38:26;36.25;;;26.05;;
23555;SDS011;11956;53.184;8.578;2023-04-16T04:41:27;36.53;;;25.23;;
23555;SDS011;11956;53.184;8.578;2023-04-16T04:44:28;37.97;;;27.58;;
23555;SDS011;11956;53.184;8.578;2023-04-16T04:47:30;39.40;;;26.45;;
23555;SDS011;11956;53.184;8.578;2023-04-16T04:50:31;36.65;;;25.77;;
23555;SDS011;11956;53.184;8.578;2023-04-16T04:53:32;36.22;;;26.30;;
23555;SDS011;11956;53.184;8.578;2023-04-16T04:56:33;39.50;;;26.05;;
23555;SDS011;11956;53.184;8.578;2023-04-16T04:59:34;32.40;;;24.60;;
23555;SDS011;11956;53.184;8.578;2023-04-16T05:02:35;35.83;;;24.73;;
23555;SDS011;11956;53.184;8.578;2023-04-16T05:05:38;38.55;;;25.23;;
23555;SDS011;11956;53.184;8.578;2023-04-16T05:08:39;36.00;;;23.17;;
23555;SDS011;11956;53.184;8.578;2023-04-16T05:11:40;32.83;;;23.10;;
23555;SDS011;11956;53.184;8.578;2023-04-16T05:14:41;35.70;;;24.02;;
23555;SDS011;11956;53.184;8.578;2023-04-16T05:17:42;31.65;;;23.10;;
23555;SDS011;11956;53.184;8.578;2023-04-16T05:20:43;31.88;;;21.77;;
23555;SDS011;11956;53.184;8.578;2023-04-16T05:23:44;33.83;;;22.35;;
23555;SDS011;11956;53.184;8.578;2023-04-16T05:26:45;34.05;;;22.48;;
23555;SDS011;11956;53.184;8.578;2023-04-16T05:29:46;32.28;;;21.73;;
23555;SDS011;11956;53.184;8.578;2023-04-16T05:32:47;30.38;;;21.58;;
23555;SDS011;11956;53.184;8.578;2023-04-16T05:35:48;30.73;;;21.83;;
23555;SDS011;11956;53.184;8.578;2023-04-16T05:38:49;31.83;;;20.77;;
23555;SDS011;11956;53.184;8.578;2023-04-16T05:41:50;32.38;;;20.40;;
23555;SDS011;11956;53.184;8.578;2023-04-16T05:44:51;30.02;;;20.45;;
23555;SDS011;11956;53.184;8.578;2023-04-16T05:47:52;29.65;;;20.33;;
23555;SDS011;11956;53.184;8.578;2023-04-16T05:50:53;29.42;;;20.63;;
23555;SDS011;11956;53.184;8.578;2023-04-16T05:53:54;31.73;;;20.80;;
23555;SDS011;11956;53.184;8.578;2023-04-16T05:56:55;26.70;;;19.60;;
23555;SDS011;11956;53.184;8.578;2023-04-16T05:59:56;33.22;;;21.17;;
23555;SDS011;11956;53.184;8.578;2023-04-16T06:02:57;33.92;;;19.50;;
23555;SDS011;11956;53.184;8.578;2023-04-16T06:05:58;27.92;;;19.30;;
23555;SDS011;11956;53.184;8.578;2023-04-16T06:08:59;29.45;;;20.13;;
23555;SDS011;11956;53.184;8.578;2023-04-16T06:12:00;29.80;;;20.30;;
23555;SDS011;11956;53.184;8.578;2023-04-16T06:15:01;28.13;;;19.70;;
23555;SDS011;11956;53.184;8.578;2023-04-16T06:18:02;26.75;;;18.45;;
23555;SDS011;11956;53.184;8.578;2023-04-16T06:21:04;27.98;;;19.92;;
23555;SDS011;11956;53.184;8.578;2023-04-16T06:24:05;26.45;;;19.45;;
23555;SDS011;11956;53.184;8.578;2023-04-16T06:27:06;29.33;;;19.00;;
23555;SDS011;11956;53.184;8.578;2023-04-16T06:30:10;28.13;;;19.05;;
23555;SDS011;11956;53.184;8.578;2023-04-16T06:33:13;25.50;;;19.00;;
23555;SDS011;11956;53.184;8.578;2023-04-16T06:36:14;25.70;;;18.42;;
23555;SDS011;11956;53.184;8.578;2023-04-16T06:39:15;27.23;;;19.35;;
23555;SDS011;11956;53.184;8.578;2023-04-16T06:42:17;28.25;;;19.10;;
23555;SDS011;11956;53.184;8.578;2023-04-16T06:45:19;25.33;;;17.88;;
23555;SDS011;11956;53.184;8.578;2023-04-16T06:48:20;24.17;;;17.58;;
23555;SDS011;11956;53.184;8.578;2023-04-16T06:51:21;24.45;;;17.70;;
23555;SDS011;11956;53.184;8.578;2023-04-16T06:54:22;26.13;;;18.40;;
23555;SDS011;11956;53.184;8.578;2023-04-16T06:57:23;25.17;;;17.90;;
23555;SDS011;11956;53.184;8.578;2023-04-16T07:00:23;25.92;;;17.48;;
23555;SDS011;11956;53.184;8.578;2023-04-16T07:03:25;27.05;;;18.13;;
23555;SDS011;11956;53.184;8.578;2023-04-16T07:06:26;28.92;;;18.75;;
23555;SDS011;11956;53.184;8.578;2023-04-16T07:09:27;26.13;;;17.60;;
23555;SDS011;11956;53.184;8.578;2023-04-16T07:12:28;24.75;;;16.98;;
23555;SDS011;11956;53.184;8.578;2023-04-16T07:15:29;27.52;;;18.23;;
23555;SDS011;11956;53.184;8.578;2023-04-16T07:18:30;24.67;;;18.25;;
23555;SDS011;11956;53.184;8.578;2023-04-16T07:21:31;25.13;;;18.25;;
23555;SDS011;11956;53.184;8.578;2023-04-16T07:24:32;27.48;;;18.02;;
23555;SDS011;11956;53.184;8.578;2023-04-16T07:27:32;26.70;;;17.98;;
23555;SDS011;11956;53.184;8.578;2023-04-16T07:30:33;25.23;;;18.35;;
23555;SDS011;11956;53.184;8.578;2023-04-16T07:33:34;29.60;;;18.63;;
23555;SDS011;11956;53.184;8.578;2023-04-16T07:36:35;25.48;;;18.10;;
23555;SDS011;11956;53.184;8.578;2023-04-16T07:39:36;25.50;;;17.80;;
23555;SDS011;11956;53.184;8.578;2023-04-16T07:42:37;23.60;;;17.90;;
23555;SDS011;11956;53.184;8.578;2023-04-16T07:45:38;22.88;;;17.85;;
23555;SDS011;11956;53.184;8.578;2023-04-16T07:48:39;24.92;;;17.75;;
23555;SDS011;11956;53.184;8.578;2023-04-16T07:51:40;24.20;;;17.83;;
23555;SDS011;11956;53.184;8.578;2023-04-16T07:54:41;28.40;;;19.05;;
23555;SDS011;11956;53.184;8.578;2023-04-16T07:57:42;29.13;;;19.60;;
23555;SDS011;11956;53.184;8.578;2023-04-16T08:00:43;25.23;;;18.25;;
23555;SDS011;11956;53.184;8.578;2023-04-16T08:03:44;25.55;;;18.65;;
23555;SDS011;11956;53.184;8.578;2023-04-16T08:06:45;28.00;;;18.88;;
23555;SDS011;11956;53.184;8.578;2023-04-16T08:09:50;25.25;;;18.30;;
23555;SDS011;11956;53.184;8.578;2023-04-16T08:12:52;24.77;;;17.02;;
23555;SDS011;11956;53.184;8.578;2023-04-16T08:15:53;25.98;;;17.60;;
23555;SDS011;11956;53.184;8.578;2023-04-16T08:18:54;26.88;;;19.02;;
23555;SDS011;11956;53.184;8.578;2023-04-16T08:21:55;22.65;;;17.23;;
23555;SDS011;11956;53.184;8.578;2023-04-16T08:24:56;26.20;;;17.15;;
23555;SDS011;11956;53.184;8.578;2023-04-16T08:27:57;24.80;;;17.13;;
23555;SDS011;11956;53.184;8.578;2023-04-16T08:30:57;27.70;;;17.83;;
23555;SDS011;11956;53.184;8.578;2023-04-16T08:33:59;25.98;;;17.02;;
23555;SDS011;11956;53.184;8.578;2023-04-16T08:37:00;23.73;;;18.08;;
23555;SDS011;11956;53.184;8.578;2023-04-16T08:40:01;25.67;;;17.17;;
23555;SDS011;11956;53.184;8.578;2023-04-16T08:43:02;23.80;;;16.27;;
23555;SDS011;11956;53.184;8.578;2023-04-16T08:46:10;23.45;;;17.58;;
23555;SDS011;11956;53.184;8.578;2023-04-16T08:49:14;23.45;;;16.70;;
23555;SDS011;11956;53.184;8.578;2023-04-16T08:52:17;22.67;;;16.55;;
23555;SDS011;11956;53.184;8.578;2023-04-16T08:55:21;22.20;;;16.25;;
23555;SDS011;11956;53.184;8.578;2023-04-16T08:58:31;23.75;;;16.33;;
23555;SDS011;11956;53.184;8.578;2023-04-16T09:01:34;24.58;;;16.30;;
23555;SDS011;11956;53.184;8.578;2023-04-16T09:04:37;23.00;;;15.70;;
23555;SDS011;11956;53.184;8.578;2023-04-16T09:07:40;23.73;;;16.50;;
23555;SDS011;11956;53.184;8.578;2023-04-16T09:10:43;21.65;;;16.13;;
23555;SDS011;11956;53.184;8.578;2023-04-16T09:13:44;23.27;;;16.00;;
23555;SDS011;11956;53.184;8.578;2023-04-16T09:16:46;25.83;;;16.55;;
23555;SDS011;11956;53.184;8.578;2023-04-16T09:19:48;26.15;;;16.90;;
23555;SDS011;11956;53.184;8.578;2023-04-16T09:22:49;24.98;;;15.98;;
23555;SDS011;11956;53.184;8.578;2023-04-16T09:25:49;23.30;;;16.08;;
23555;SDS011;11956;53.184;8.578;2023-04-16T09:28:50;25.75;;;16.13;;
23555;SDS011;11956;53.184;8.578;2023-04-16T09:32:01;22.27;;;14.60;;
23555;SDS011;11956;53.184;8.578;2023-04-16T09:35:05;27.63;;;16.80;;
23555;SDS011;11956;53.184;8.578;2023-04-16T09:38:06;23.67;;;16.55;;
23555;SDS011;11956;53.184;8.578;2023-04-16T09:41:07;24.08;;;16.85;;
23555;SDS011;11956;53.184;8.578;2023-04-16T09:44:08;23.05;;;17.55;;
23555;SDS011;11956;53.184;8.578;2023-04-16T09:47:09;26.75;;;17.08;;
23555;SDS011;11956;53.184;8.578;2023-04-16T09:50:17;22.48;;;15.95;;
23555;SDS011;11956;53.184;8.578;2023-04-16T09:53:22;21.50;;;16.35;;
23555;SDS011;11956;53.184;8.578;2023-04-16T09:56:28;21.98;;;16.33;;
23555;SDS011;11956;53.184;8.578;2023-04-16T09:59:29;21.05;;;15.88;;
23555;SDS011;11956;53.184;8.578;2023-04-16T10:02:33;21.38;;;16.20;;
23555;SDS011;11956;53.184;8.578;2023-04-16T10:05:37;21.05;;;15.80;;
23555;SDS011;11956;53.184;8.578;2023-04-16T10:08:43;23.38;;;16.02;;
23555;SDS011;11956;53.184;8.578;2023-04-16T10:11:51;21.60;;;15.98;;
23555;SDS011;11956;53.184;8.578;2023-04-16T10:14:52;22.35;;;16.58;;
23555;SDS011;11956;53.184;8.578;2023-04-16T10:17:53;22.45;;;15.25;;
23555;SDS011;11956;53.184;8.578;2023-04-16T10:20:56;20.83;;;15.23;;
23555;SDS011;11956;53.184;8.578;2023-04-16T10:23:58;21.50;;;15.10;;
23555;SDS011;11956;53.184;8.578;2023-04-16T10:26:59;20.63;;;14.43;;
23555;SDS011;11956;53.184;8.578;2023-04-16T10:30:01;18.58;;;14.63;;
23555;SDS011;11956;53.184;8.578;2023-04-16T10:33:03;19.67;;;14.43;;
23555;SDS011;11956;53.184;8.578;2023-04-16T10:36:15;23.23;;;15.45;;
23555;SDS011;11956;53.184;8.578;2023-04-16T10:39:23;22.10;;;14.77;;
23555;SDS011;11956;53.184;8.578;2023-04-16T10:42:27;17.92;;;13.55;;
23555;SDS011;11956;53.184;8.578;2023-04-16T10:45:28;19.88;;;14.13;;
23555;SDS011;11956;53.184;8.578;2023-04-16T10:48:31;19.45;;;13.77;;
23555;SDS011;11956;53.184;8.578;2023-04-16T10:51:33;17.55;;;13.65;;
23555;SDS011;11956;53.184;8.578;2023-04-16T10:54:35;17.10;;;12.73;;
23555;SDS011;11956;53.184;8.578;2023-04-16T10:57:37;17.70;;;13.23;;
23555;SDS011;11956;53.184;8.578;2023-04-16T11:00:47;20.02;;;13.82;;
23555;SDS011;11956;53.184;8.578;2023-04-16T11:03:52;15.77;;;13.15;;
23555;SDS011;11956;53.184;8.578;2023-04-16T11:10:15;19.45;;;13.98;;
23555;SDS011;11956;53.184;8.578;2023-04-16T11:13:16;17.77;;;12.65;;
23555;SDS011;11956;53.184;8.578;2023-04-16T11:16:19;17.73;;;14.33;;
23555;SDS011;11956;53.184;8.578;2023-04-16T11:19:19;17.40;;;12.65;;
23555;SDS011;11956;53.184;8.578;2023-04-16T11:22:21;18.08;;;13.45;;
23555;SDS011;11956;53.184;8.578;2023-04-16T11:25:25;15.63;;;12.75;;
23555;SDS011;11956;53.184;8.578;2023-04-16T11:28:33;17.48;;;13.00;;
23555;SDS011;11956;53.184;8.578;2023-04-16T11:31:35;16.30;;;13.13;;
23555;SDS011;11956;53.184;8.578;2023-04-16T11:34:43;15.68;;;12.65;;
23555;SDS011;11956;53.184;8.578;2023-04-16T11:37:45;19.05;;;13.40;;
23555;SDS011;11956;53.184;8.578;2023-04-16T11:40:50;16.40;;;13.05;;
23555;SDS011;11956;53.184;8.578;2023-04-16T11:43:53;17.60;;;14.00;;
23555;SDS011;11956;53.184;8.578;2023-04-16T11:46:54;21.00;;;15.13;;
23555;SDS011;11956;53.184;8.578;2023-04-16T11:49:55;20.77;;;14.68;;
23555;SDS011;11956;53.184;8.578;2023-04-16T11:53:02;20.75;;;15.57;;
23555;SDS011;11956;53.184;8.578;2023-04-16T11:56:04;20.50;;;15.60;;
23555;SDS011;11956;53.184;8.578;2023-04-16T12:02:10;18.92;;;14.68;;
23555;SDS011;11956;53.184;8.578;2023-04-16T12:05:27;17.90;;;14.73;;
23555;SDS011;11956;53.184;8.578;2023-04-16T12:08:41;18.92;;;15.75;;
23555;SDS011;11956;53.184;8.578;2023-04-16T12:11:42;22.92;;;16.02;;
23555;SDS011;11956;53.184;8.578;2023-04-16T12:14:49;18.45;;;15.35;;
23555;SDS011;11956;53.184;8.578;2023-04-16T12:17:51;21.38;;;16.38;;
23555;SDS011;11956;53.184;8.578;2023-04-16T12:21:07;19.35;;;15.60;;
23555;SDS011;11956;53.184;8.578;2023-04-16T12:24:08;20.23;;;15.32;;
23555;SDS011;11956;53.184;8.578;2023-04-16T12:27:14;18.48;;;15.23;;
23555;SDS011;11956;53.184;8.578;2023-04-16T12:30:16;19.67;;;14.70;;
23555;SDS011;11956;53.184;8.578;2023-04-16T12:33:19;23.50;;;16.33;;
23555;SDS011;11956;53.184;8.578;2023-04-16T12:36:20;23.65;;;16.75;;
23555;SDS011;11956;53.184;8.578;2023-04-16T12:39:21;20.98;;;15.15;;
23555;SDS011;11956;53.184;8.578;2023-04-16T12:42:22;20.13;;;14.73;;
23555;SDS011;11956;53.184;8.578;2023-04-16T12:45:23;21.33;;;15.73;;
23555;SDS011;11956;53.184;8.578;2023-04-16T12:48:24;18.60;;;15.20;;
23555;SDS011;11956;53.184;8.578;2023-04-16T12:51:25;17.85;;;14.82;;
23555;SDS011;11956;53.184;8.578;2023-04-16T12:54:27;21.45;;;15.55;;
23555;SDS011;11956;53.184;8.578;2023-04-16T12:57:30;20.98;;;15.13;;
23555;SDS011;11956;53.184;8.578;2023-04-16T13:00:31;21.65;;;15.65;;
23555;SDS011;11956;53.184;8.578;2023-04-16T13:03:31;20.38;;;15.15;;
23555;SDS011;11956;53.184;8.578;2023-04-16T13:06:35;18.95;;;14.80;;
23555;SDS011;11956;53.184;8.578;2023-04-16T13:09:37;22.55;;;15.70;;
23555;SDS011;11956;53.184;8.578;2023-04-16T13:12:38;19.08;;;14.70;;
23555;SDS011;11956;53.184;8.578;2023-04-16T13:15:38;20.33;;;15.35;;
23555;SDS011;11956;53.184;8.578;2023-04-16T13:18:40;19.95;;;15.13;;
23555;SDS011;11956;53.184;8.578;2023-04-16T13:21:41;19.92;;;14.98;;
23555;SDS011;11956;53.184;8.578;2023-04-16T13:24:42;20.70;;;15.93;;
23555;SDS011;11956;53.184;8.578;2023-04-16T13:27:43;21.63;;;15.35;;
23555;SDS011;11956;53.184;8.578;2023-04-16T13:30:44;22.27;;;15.60;;
23555;SDS011;11956;53.184;8.578;2023-04-16T13:33:46;20.55;;;15.07;;
23555;SDS011;11956;53.184;8.578;2023-04-16T13:36:47;22.27;;;15.73;;
23555;SDS011;11956;53.184;8.578;2023-04-16T13:39:49;20.58;;;15.40;;
23555;SDS011;11956;53.184;8.578;2023-04-16T13:42:50;18.60;;;15.32;;
23555;SDS011;11956;53.184;8.578;2023-04-16T13:45:51;20.20;;;15.38;;
23555;SDS011;11956;53.184;8.578;2023-04-16T13:48:52;22.25;;;15.57;;
23555;SDS011;11956;53.184;8.578;2023-04-16T13:51:53;19.02;;;15.55;;
23555;SDS011;11956;53.184;8.578;2023-04-16T13:54:54;19.88;;;15.32;;
23555;SDS011;11956;53.184;8.578;2023-04-16T13:57:55;19.70;;;15.90;;
23555;SDS011;11956;53.184;8.578;2023-04-16T14:00:56;21.40;;;15.38;;
23555;SDS011;11956;53.184;8.578;2023-04-16T14:03:57;19.95;;;15.55;;
23555;SDS011;11956;53.184;8.578;2023-04-16T14:07:04;20.10;;;14.45;;
23555;SDS011;11956;53.184;8.578;2023-04-16T14:10:06;20.60;;;15.07;;
23555;SDS011;11956;53.184;8.578;2023-04-16T14:13:08;19.67;;;14.60;;
23555;SDS011;11956;53.184;8.578;2023-04-16T14:16:09;19.30;;;14.93;;
23555;SDS011;11956;53.184;8.578;2023-04-16T14:19:10;19.60;;;14.48;;
23555;SDS011;11956;53.184;8.578;2023-04-16T14:22:10;18.45;;;14.85;;
23555;SDS011;11956;53.184;8.578;2023-04-16T14:25:11;18.08;;;14.10;;
23555;SDS011;11956;53.184;8.578;2023-04-16T14:28:12;18.27;;;14.45;;
23555;SDS011;11956;53.184;8.578;2023-04-16T14:31:13;19.67;;;14.93;;
23555;SDS011;11956;53.184;8.578;2023-04-16T14:34:16;18.43;;;15.07;;
23555;SDS011;11956;53.184;8.578;2023-04-16T14:37:17;21.65;;;14.98;;
23555;SDS011;11956;53.184;8.578;2023-04-16T14:40:17;19.65;;;14.55;;
23555;SDS011;11956;53.184;8.578;2023-04-16T14:43:18;18.70;;;14.75;;
23555;SDS011;11956;53.184;8.578;2023-04-16T14:46:19;18.95;;;15.07;;
23555;SDS011;11956;53.184;8.578;2023-04-16T14:49:20;20.92;;;14.80;;
23555;SDS011;11956;53.184;8.578;2023-04-16T14:52:21;19.45;;;14.63;;
23555;SDS011;11956;53.184;8.578;2023-04-16T14:55:22;22.10;;;16.05;;
23555;SDS011;11956;53.184;8.578;2023-04-16T14:58:23;20.50;;;15.43;;
23555;SDS011;11956;53.184;8.578;2023-04-16T15:01:25;19.48;;;15.38;;
23555;SDS011;11956;53.184;8.578;2023-04-16T15:04:26;20.85;;;15.88;;
23555;SDS011;11956;53.184;8.578;2023-04-16T15:07:28;18.40;;;13.95;;
23555;SDS011;11956;53.184;8.578;2023-04-16T15:10:30;19.20;;;15.25;;
23555;SDS011;11956;53.184;8.578;2023-04-16T15:13:31;20.20;;;15.30;;
23555;SDS011;11956;53.184;8.578;2023-04-16T15:16:33;22.02;;;14.93;;
23555;SDS011;11956;53.184;8.578;2023-04-16T15:19:34;21.17;;;16.33;;
23555;SDS011;11956;53.184;8.578;2023-04-16T15:22:36;20.25;;;15.90;;
23555;SDS011;11956;53.184;8.578;2023-04-16T15:25:37;20.95;;;15.98;;
23555;SDS011;11956;53.184;8.578;2023-04-16T15:28:38;20.88;;;16.10;;
23555;SDS011;11956;53.184;8.578;2023-04-16T15:31:39;22.15;;;16.15;;
23555;SDS011;11956;53.184;8.578;2023-04-16T15:34:40;22.55;;;16.15;;
23555;SDS011;11956;53.184;8.578;2023-04-16T15:37:41;22.60;;;16.48;;
23555;SDS011;11956;53.184;8.578;2023-04-16T15:40:42;25.15;;;18.35;;
23555;SDS011;11956;53.184;8.578;2023-04-16T15:43:43;21.27;;;16.20;;
23555;SDS011;11956;53.184;8.578;2023-04-16T15:46:45;23.55;;;16.92;;
23555;SDS011;11956;53.184;8.578;2023-04-16T15:49:46;23.83;;;16.45;;
23555;SDS011;11956;53.184;8.578;2023-04-16T15:52:47;24.77;;;18.60;;
23555;SDS011;11956;53.184;8.578;2023-04-16T15:55:48;22.73;;;18.30;;
23555;SDS011;11956;53.184;8.578;2023-04-16T15:58:51;28.83;;;19.83;;
23555;SDS011;11956;53.184;8.578;2023-04-16T16:01:52;27.35;;;21.80;;
23555;SDS011;11956;53.184;8.578;2023-04-16T16:04:53;28.73;;;21.88;;
23555;SDS011;11956;53.184;8.578;2023-04-16T16:07:54;30.63;;;21.92;;
23555;SDS011;11956;53.184;8.578;2023-04-16T16:10:56;30.75;;;21.92;;
23555;SDS011;11956;53.184;8.578;2023-04-16T16:13:57;30.08;;;22.20;;
23555;SDS011;11956;53.184;8.578;2023-04-16T16:17:00;30.25;;;23.35;;
23555;SDS011;11956;53.184;8.578;2023-04-16T16:20:01;29.80;;;23.10;;
23555;SDS011;11956;53.184;8.578;2023-04-16T16:23:03;28.73;;;22.60;;
23555;SDS011;11956;53.184;8.578;2023-04-16T16:26:04;30.02;;;23.50;;
23555;SDS011;11956;53.184;8.578;2023-04-16T16:29:05;31.02;;;23.48;;
23555;SDS011;11956;53.184;8.578;2023-04-16T16:32:06;30.30;;;24.25;;
23555;SDS011;11956;53.184;8.578;2023-04-16T16:35:07;31.05;;;24.27;;
23555;SDS011;11956;53.184;8.578;2023-04-16T16:38:09;30.42;;;24.33;;
23555;SDS011;11956;53.184;8.578;2023-04-16T16:41:10;33.40;;;24.60;;
23555;SDS011;11956;53.184;8.578;2023-04-16T16:44:12;29.80;;;23.67;;
23555;SDS011;11956;53.184;8.578;2023-04-16T16:47:12;31.00;;;24.20;;
23555;SDS011;11956;53.184;8.578;2023-04-16T16:50:13;32.20;;;24.42;;
23555;SDS011;11956;53.184;8.578;2023-04-16T16:53:14;32.20;;;24.83;;
23555;SDS011;11956;53.184;8.578;2023-04-16T16:56:15;28.67;;;23.73;;
23555;SDS011;11956;53.184;8.578;2023-04-16T16:59:16;29.77;;;24.23;;
23555;SDS011;11956;53.184;8.578;2023-04-16T17:02:17;30.45;;;22.42;;
23555;SDS011;11956;53.184;8.578;2023-04-16T17:05:18;31.92;;;23.25;;
23555;SDS011;11956;53.184;8.578;2023-04-16T17:08:19;29.17;;;22.25;;
23555;SDS011;11956;53.184;8.578;2023-04-16T17:11:20;30.38;;;22.40;;
23555;SDS011;11956;53.184;8.578;2023-04-16T17:14:21;29.30;;;23.08;;
23555;SDS011;11956;53.184;8.578;2023-04-16T17:17:22;28.58;;;21.60;;
23555;SDS011;11956;53.184;8.578;2023-04-16T17:20:24;26.98;;;20.75;;
23555;SDS011;11956;53.184;8.578;2023-04-16T17:23:25;26.33;;;18.60;;
23555;SDS011;11956;53.184;8.578;2023-04-16T17:26:26;22.15;;;17.27;;
23555;SDS011;11956;53.184;8.578;2023-04-16T17:29:27;22.98;;;17.40;;
23555;SDS011;11956;53.184;8.578;2023-04-16T17:32:29;23.98;;;17.13;;
23555;SDS011;11956;53.184;8.578;2023-04-16T17:35:31;22.00;;;16.15;;
23555;SDS011;11956;53.184;8.578;2023-04-16T17:38:32;24.95;;;16.73;;
23555;SDS011;11956;53.184;8.578;2023-04-16T17:41:33;23.80;;;17.58;;
23555;SDS011;11956;53.184;8.578;2023-04-16T17:44:34;23.88;;;16.98;;
23555;SDS011;11956;53.184;8.578;2023-04-16T17:47:36;23.25;;;17.02;;
23555;SDS011;11956;53.184;8.578;2023-04-16T17:50:37;22.52;;;15.65;;